createdAt,value
2023-03-06T08:04:25.037Z,54.37
2023-03-06T08:07:30.742Z,54.19
2023-03-06T08:10:07.631Z,53.15
2023-03-06T08:13:16.428Z,53.51
2023-03-06T08:16:05.617Z,53.43
2023-03-06T08:18:33.944Z,52.71
2023-03-06T08:21:03.440Z,51.64
2023-03-06T08:23:41.367Z,51.35
2023-03-06T08:26:14.810Z,50.07
2023-03-06T08:28:46.544Z,50.18
2023-03-06T08:31:27.457Z,50.25
2023-03-06T08:33:59.489Z,48.97
2023-03-06T08:36:28.583Z,48.79
2023-03-06T08:38:58.278Z,48.06
2023-03-06T08:41:27.183Z,48.03
2023-03-06T08:43:55.487Z,47.71
2023-03-06T08:46:25.270Z,47.23
2023-03-06T08:49:17.282Z,45.73
2023-03-06T08:51:47.129Z,45.75
2023-03-06T08:54:21.244Z,45.68
2023-03-06T08:56:50.559Z,46.41
2023-03-06T08:59:19.141Z,43.45
2023-03-06T09:01:47.070Z,43.18
2023-03-06T09:04:14.981Z,42.84
2023-03-06T09:06:45.321Z,42.43
2023-03-06T09:09:13.821Z,43.61
2023-03-06T09:11:42.121Z,42.90
2023-03-06T09:14:11.008Z,42.67
2023-03-06T09:16:41.138Z,41.13
2023-03-06T09:19:10.014Z,41.72
2023-03-06T09:21:39.327Z,40.59
2023-03-06T09:24:07.943Z,40.53
2023-03-06T09:26:45.416Z,40.65
2023-03-06T09:29:17.188Z,39.98
2023-03-06T09:31:45.709Z,39.76
2023-03-06T09:34:14.211Z,39.84
2023-03-06T09:36:56.000Z,39.62
2023-03-06T09:39:26.446Z,38.64
2023-03-06T09:41:56.106Z,38.12
2023-03-06T09:44:29.749Z,37.31
2023-03-06T09:47:05.592Z,37.57
2023-03-06T09:49:40.461Z,35.49
2023-03-06T09:52:28.837Z,34.95
2023-03-06T09:55:00.780Z,35.17
2023-03-06T09:57:31.681Z,34.73
2023-03-06T10:00:04.221Z,35.18
2023-03-06T10:02:39.005Z,34.95
2023-03-06T10:05:12.594Z,34.91
2023-03-06T10:08:10.887Z,35.70
2023-03-06T10:10:54.098Z,34.63
2023-03-06T10:13:33.069Z,34.56
2023-03-06T10:16:27.418Z,33.78
2023-03-06T10:19:00.305Z,32.41
2023-03-06T10:21:47.715Z,31.96
2023-03-06T10:24:22.411Z,32.50
2023-03-06T10:27:17.006Z,32.16
2023-03-06T10:30:03.264Z,32.00
2023-03-06T10:32:48.262Z,31.48
2023-03-06T10:35:21.602Z,31.75
2023-03-06T10:37:50.720Z,31.83
2023-03-06T10:40:20.791Z,30.69
2023-03-06T10:42:56.056Z,30.84
2023-03-06T10:45:40.565Z,31.61
2023-03-06T10:48:19.043Z,30.66
2023-03-06T10:50:47.742Z,31.03
2023-03-06T10:53:29.289Z,30.63
2023-03-06T10:56:17.484Z,30.36
2023-03-06T10:58:45.527Z,29.28
2023-03-06T11:01:14.182Z,28.42
2023-03-06T11:03:43.065Z,28.78
2023-03-06T11:06:13.867Z,29.21
2023-03-06T11:08:43.781Z,28.76
2023-03-06T11:11:28.235Z,28.40
2023-03-06T11:14:03.635Z,29.28
2023-03-06T11:16:32.641Z,29.45
2023-03-06T11:19:08.320Z,28.56
2023-03-06T11:21:40.004Z,28.82
2023-03-06T11:24:15.575Z,28.59
2023-03-06T11:26:52.344Z,28.99
2023-03-06T11:29:24.011Z,28.90
2023-03-06T11:32:01.965Z,28.29
2023-03-06T11:34:50.767Z,27.91
2023-03-06T11:37:35.186Z,27.45
2023-03-06T11:40:13.885Z,27.63
2023-03-06T11:43:04.518Z,27.40
2023-03-06T11:45:38.522Z,27.48
2023-03-06T11:48:19.292Z,26.56
2023-03-06T11:50:54.054Z,25.86
2023-03-06T11:53:45.909Z,26.84
2023-03-06T11:56:29.469Z,25.57
2023-03-06T11:59:07.689Z,25.11
2023-03-06T12:01:35.773Z,24.88
2023-03-06T12:04:24.015Z,24.53
2023-03-06T12:06:55.068Z,24.48
2023-03-06T12:09:26.143Z,24.07
2023-03-06T12:12:03.171Z,23.46
2023-03-06T12:14:47.149Z,24.06
2023-03-06T12:17:38.562Z,25.12
2023-03-06T12:20:28.647Z,24.96
2023-03-06T12:23:15.272Z,24.89
2023-03-06T12:25:49.638Z,24.64
2023-03-06T12:28:51.174Z,24.71
2023-03-06T12:31:27.492Z,24.48
2023-03-06T12:34:08.088Z,24.21
2023-03-06T12:37:06.296Z,23.82
2023-03-06T12:39:40.441Z,23.75
2023-03-06T12:42:23.376Z,24.00
2023-03-06T12:45:05.082Z,24.41
2023-03-06T12:47:41.264Z,24.31
2023-03-06T12:50:30.590Z,24.16
2023-03-06T12:53:12.786Z,23.93
2023-03-06T12:55:44.210Z,24.23
2023-03-06T12:58:51.325Z,23.59
2023-03-06T13:01:24.279Z,24.10
2023-03-06T13:04:13.842Z,24.60
2023-03-06T13:07:01.941Z,24.79
2023-03-06T13:09:36.225Z,24.41
2023-03-06T13:12:27.146Z,25.50
2023-03-06T13:14:58.238Z,25.85
2023-03-06T13:17:50.807Z,25.81
2023-03-06T13:20:35.481Z,26.33
2023-03-06T13:23:23.208Z,26.06
2023-03-06T13:25:52.213Z,26.04
2023-03-06T13:28:25.182Z,25.12
2023-03-06T13:30:54.824Z,25.28
2023-03-06T13:33:33.354Z,25.74
2023-03-06T13:36:16.863Z,25.32
2023-03-06T13:38:44.797Z,25.24
2023-03-06T13:41:22.196Z,25.28
2023-03-06T13:43:51.880Z,24.47
2023-03-06T13:46:24.767Z,25.09
2023-03-06T13:49:29.991Z,25.35
2023-03-06T13:52:05.142Z,25.47
2023-03-06T13:54:40.569Z,25.39
2023-03-06T13:57:31.215Z,25.57
2023-03-06T14:00:22.530Z,25.36
2023-03-06T14:02:59.959Z,25.92
2023-03-06T14:06:07.122Z,26.00
2023-03-06T14:08:56.943Z,26.19
2023-03-06T14:11:27.642Z,25.73
2023-03-06T14:14:01.859Z,25.92
2023-03-06T14:16:49.931Z,26.30
2023-03-06T14:19:40.019Z,27.72
2023-03-06T14:22:16.302Z,28.31
2023-03-06T14:24:54.430Z,29.24
2023-03-06T14:27:38.169Z,30.25
2023-03-06T14:30:12.163Z,30.86
2023-03-06T14:32:40.725Z,30.91
2023-03-06T14:35:20.320Z,30.63
2023-03-06T14:37:53.409Z,31.12
2023-03-06T14:40:59.336Z,31.86
2023-03-06T14:43:28.071Z,31.70
2023-03-06T14:45:58.038Z,31.98
2023-03-06T14:48:36.301Z,31.89
2023-03-06T14:51:05.631Z,31.77
2023-03-06T14:53:35.602Z,32.11
2023-03-06T14:56:06.326Z,32.14
2023-03-06T14:58:36.629Z,32.73
2023-03-06T15:01:08.088Z,32.32
2023-03-06T15:03:46.832Z,32.60
2023-03-06T15:06:34.169Z,32.97
2023-03-06T15:09:08.531Z,32.82
2023-03-06T15:11:52.506Z,33.59
2023-03-06T15:14:28.911Z,33.88
2023-03-06T15:17:14.941Z,34.12
2023-03-06T15:19:46.151Z,34.43
2023-03-06T15:22:25.769Z,34.70
2023-03-06T15:25:06.652Z,34.94
2023-03-06T15:27:35.561Z,35.69
2023-03-06T15:30:24.863Z,35.91
2023-03-06T15:33:08.862Z,36.44
2023-03-06T15:35:38.404Z,36.62
2023-03-06T15:38:24.808Z,36.79
2023-03-06T15:40:55.217Z,37.02
2023-03-06T15:43:24.384Z,36.71
2023-03-06T15:45:59.560Z,37.11
2023-03-06T15:48:28.630Z,37.45
2023-03-06T15:50:58.776Z,37.59
2023-03-06T15:53:28.648Z,37.78
2023-03-06T15:55:58.502Z,38.04
2023-03-06T15:58:29.530Z,38.15
2023-03-06T16:00:59.272Z,38.35
2023-03-06T16:03:27.675Z,38.94
2023-03-06T16:05:57.208Z,38.78
2023-03-06T16:08:26.537Z,39.14
2023-03-06T16:10:55.974Z,39.19
2023-03-06T16:13:32.653Z,39.37
2023-03-06T16:16:02.772Z,39.67
2023-03-06T16:18:32.650Z,39.72
2023-03-06T16:21:02.838Z,39.82
2023-03-06T16:23:32.312Z,40.05
2023-03-06T16:26:02.377Z,40.24
2023-03-06T16:28:36.952Z,41.18
2023-03-06T16:31:06.999Z,41.12
2023-03-06T16:33:59.820Z,40.99
2023-03-06T16:36:37.820Z,40.59
2023-03-06T16:39:16.692Z,41.24
2023-03-06T16:42:04.696Z,41.23
2023-03-06T16:44:37.506Z,41.46
2023-03-06T16:47:23.199Z,41.86
2023-03-06T16:50:44.539Z,41.74
2023-03-06T16:53:20.470Z,41.99
2023-03-06T16:55:49.950Z,42.32
2023-03-06T16:58:44.036Z,42.34
2023-03-06T17:01:49.067Z,42.40
2023-03-06T17:04:38.593Z,42.50
2023-03-06T17:07:43.578Z,42.58
2023-03-06T17:10:34.779Z,43.17
2023-03-06T17:13:03.579Z,43.26
2023-03-06T17:15:32.829Z,43.51
2023-03-06T17:18:06.517Z,43.85
2023-03-06T17:20:35.782Z,43.92
2023-03-06T17:23:11.615Z,43.66
2023-03-06T17:25:42.194Z,43.96
2023-03-06T17:28:15.399Z,43.64
2023-03-06T17:30:45.351Z,43.48
2023-03-06T17:33:18.725Z,43.63
2023-03-06T17:35:48.020Z,44.09
2023-03-06T17:38:16.960Z,44.00
2023-03-06T17:40:46.487Z,43.85
2023-03-06T17:43:16.487Z,44.07
2023-03-06T17:46:03.862Z,43.96
2023-03-06T17:48:37.326Z,44.37
2023-03-06T17:51:06.557Z,44.66
2023-03-06T17:53:38.326Z,45.21
2023-03-06T17:56:11.960Z,45.18
2023-03-06T17:59:23.897Z,45.27
2023-03-06T18:02:02.871Z,45.70
2023-03-06T18:04:51.120Z,45.55
2023-03-06T18:07:20.456Z,45.37
2023-03-06T18:09:49.234Z,45.11
2023-03-06T18:12:18.822Z,45.41
2023-03-06T18:14:48.790Z,46.57
2023-03-06T18:17:20.288Z,45.91
2023-03-06T18:19:51.230Z,46.25
2023-03-06T18:22:22.523Z,46.28
2023-03-06T18:24:53.377Z,46.31
2023-03-06T18:27:22.228Z,46.23
2023-03-06T18:29:53.000Z,46.71
2023-03-06T18:32:22.829Z,46.61
2023-03-06T18:34:52.007Z,46.62
2023-03-06T18:37:20.972Z,46.79
2023-03-06T18:39:53.361Z,46.61
2023-03-06T20:01:56.632Z,49.37
2023-03-06T20:04:25.224Z,49.30
2023-03-06T20:07:00.788Z,49.12
2023-03-06T20:09:39.592Z,49.23
2023-03-06T20:12:09.055Z,49.30
2023-03-06T20:14:38.743Z,49.09
2023-03-06T20:17:08.828Z,49.10
2023-03-06T20:19:44.169Z,49.27
2023-03-06T20:22:19.305Z,48.79
2023-03-06T20:24:49.040Z,48.89
2023-03-06T20:27:28.006Z,50.17
2023-03-06T20:30:18.912Z,49.89
2023-03-06T20:32:49.842Z,50.36
2023-03-06T20:35:23.494Z,50.81
2023-03-06T20:37:53.510Z,50.77
2023-03-06T20:40:27.762Z,51.53
2023-03-06T20:43:20.725Z,51.24
2023-03-06T20:46:20.055Z,51.40
2023-03-06T20:48:52.370Z,51.45
2023-03-06T20:51:24.505Z,51.68
2023-03-06T20:53:58.095Z,52.47
2023-03-06T20:56:50.517Z,52.67
2023-03-06T20:59:20.120Z,53.04
2023-03-06T21:02:22.279Z,52.31
2023-03-06T21:04:53.495Z,52.42
2023-03-06T21:07:23.854Z,53.17
2023-03-06T21:10:11.185Z,53.55
2023-03-06T21:13:00.629Z,52.72
2023-03-06T21:15:31.214Z,53.43
2023-03-06T21:18:02.721Z,53.84
